Time;durP1;ratioP1;P1;durP2;ratioP2;P2;SDS_P1;SDS_P2;PMS_P1;PMS_P2;Temp;Humidity;BMP_temperature;BMP_pressure;BME280_temperature;BME280_humidity;BME280_pressure;Samples;Min_cycle;Max_cycle;Signal;HPM_P1;HPM_P2
2021/07/07 00:02:23;;;;;;;6.30;1.40;;;16.10;84.00;;;;;;5071702;28;20036;-83
2021/07/07 00:04:50;;;;;;;3.58;1.25;;;16.10;84.10;;;;;;5071529;28;20039;-83
2021/07/07 00:07:16;;;;;;;3.35;1.10;;;16.00;84.20;;;;;;5071640;28;20029;-83
2021/07/07 00:09:42;;;;;;;4.40;1.33;;;16.00;84.50;;;;;;5071475;28;20753;-83
2021/07/07 00:12:08;;;;;;;4.45;1.20;;;16.00;84.60;;;;;;5072732;28;20086;-82
2021/07/07 00:14:34;;;;;;;2.80;1.10;;;16.00;84.50;;;;;;5074877;28;20158;-82
2021/07/07 00:16:59;;;;;;;2.85;1.23;;;15.90;84.40;;;;;;5077309;28;20085;-83
2021/07/07 00:19:25;;;;;;;5.25;1.52;;;15.90;84.50;;;;;;5095528;28;20020;-82
2021/07/07 00:21:57;;;;;;;4.45;1.55;;;15.90;84.60;;;;;;5078285;28;20078;-82
2021/07/07 00:24:23;;;;;;;6.43;1.75;;;15.90;84.70;;;;;;5079447;28;20032;-82
2021/07/07 00:26:49;;;;;;;4.78;1.40;;;15.90;84.70;;;;;;5095185;28;20038;-82
2021/07/07 00:29:15;;;;;;;5.88;1.60;;;16.00;84.80;;;;;;5095261;28;20055;-82
2021/07/07 00:31:41;;;;;;;6.40;1.50;;;16.00;84.80;;;;;;5080050;28;20184;-83
2021/07/07 00:34:07;;;;;;;5.72;1.80;;;16.00;84.80;;;;;;5092150;28;20028;-82
2021/07/07 00:36:32;;;;;;;8.02;2.22;;;16.00;84.80;;;;;;5081169;28;20039;-82
2021/07/07 00:38:58;;;;;;;7.13;2.05;;;16.00;84.80;;;;;;5079447;28;20055;-83
2021/07/07 00:41:23;;;;;;;10.95;2.10;;;16.00;84.80;;;;;;5094111;28;20032;-83
2021/07/07 00:43:49;;;;;;;9.70;2.03;;;16.00;84.70;;;;;;5061811;28;20604;-83
2021/07/07 00:46:15;;;;;;;5.28;2.00;;;16.00;84.60;;;;;;5085460;28;20051;-83
2021/07/07 00:48:40;;;;;;;4.45;2.10;;;16.00;84.60;;;;;;5076080;28;20032;-82
2021/07/07 00:51:06;;;;;;;9.35;2.70;;;16.00;84.80;;;;;;5057774;28;20078;-83
2021/07/07 00:53:32;;;;;;;7.95;2.20;;;16.00;84.90;;;;;;5078448;28;20439;-83
2021/07/07 00:55:59;;;;;;;9.43;2.30;;;16.00;84.90;;;;;;5061706;28;20056;-83
2021/07/07 00:58:26;;;;;;;5.68;2.38;;;16.00;84.80;;;;;;5074379;28;20388;-82
2021/07/07 01:00:52;;;;;;;11.43;2.47;;;16.00;85.40;;;;;;5074058;28;20028;-83
2021/07/07 01:03:18;;;;;;;10.73;2.72;;;16.00;84.90;;;;;;5073578;28;20039;-82
2021/07/07 01:05:43;;;;;;;11.93;3.08;;;16.00;85.00;;;;;;5084745;28;20040;-82
2021/07/07 01:08:10;;;;;;;6.75;2.63;;;16.00;85.00;;;;;;5095785;28;20120;-82
2021/07/07 01:10:36;;;;;;;6.07;2.55;;;16.00;85.20;;;;;;5085367;28;20032;-82
2021/07/07 01:13:02;;;;;;;7.72;3.22;;;15.90;85.10;;;;;;5075400;28;20052;-82
2021/07/07 01:15:28;;;;;;;10.48;3.10;;;15.90;85.10;;;;;;5074078;28;20594;-82
2021/07/07 01:17:53;;;;;;;6.15;3.17;;;15.90;85.10;;;;;;5075349;28;20056;-82
2021/07/07 01:20:22;;;;;;;6.47;3.00;;;15.90;85.20;;;;;;5081343;28;20048;-82
2021/07/07 01:22:49;;;;;;;6.70;2.80;;;15.90;85.30;;;;;;5094228;28;20023;-82
2021/07/07 01:25:15;;;;;;;13.20;3.58;;;15.90;85.20;;;;;;5095028;28;20028;-83
2021/07/07 01:27:43;;;;;;;8.32;3.40;;;15.80;85.30;;;;;;5095529;28;20027;-83
2021/07/07 01:30:21;;;;;;;6.97;3.53;;;15.80;85.30;;;;;;5055107;28;20028;-82
2021/07/07 01:32:47;;;;;;;6.05;2.50;;;15.80;85.30;;;;;;5059877;28;20016;-83
2021/07/07 01:35:14;;;;;;;6.75;3.38;;;15.80;85.20;;;;;;5074976;28;20112;-82
2021/07/07 01:37:41;;;;;;;7.93;3.28;;;15.70;85.30;;;;;;5074915;28;20036;-82
2021/07/07 01:40:08;;;;;;;9.27;3.28;;;15.70;85.30;;;;;;5074862;28;20051;-82
2021/07/07 01:42:33;;;;;;;10.05;3.08;;;15.70;85.30;;;;;;5057044;28;20504;-82
2021/07/07 01:45:00;;;;;;;6.45;2.80;;;15.70;85.30;;;;;;5073541;28;20033;-83
2021/07/07 01:47:25;;;;;;;10.38;3.40;;;15.70;85.40;;;;;;5073574;28;20438;-81
2021/07/07 01:49:51;;;;;;;6.13;2.70;;;15.70;85.40;;;;;;5092387;28;20032;-80
2021/07/07 01:52:16;;;;;;;7.03;3.40;;;15.70;85.40;;;;;;5076775;28;20086;-80
2021/07/07 01:54:42;;;;;;;9.10;3.15;;;15.70;85.40;;;;;;5073372;28;20060;-80
2021/07/07 01:57:08;;;;;;;9.02;3.80;;;15.70;85.50;;;;;;5074796;28;20021;-80
2021/07/07 01:59:33;;;;;;;12.98;4.40;;;15.70;85.50;;;;;;5088071;28;20111;-80
2021/07/07 02:01:59;;;;;;;8.30;3.53;;;15.70;85.80;;;;;;5076388;28;20029;-80
2021/07/07 02:04:25;;;;;;;4.78;2.92;;;15.60;85.40;;;;;;5084267;28;20020;-80
2021/07/07 02:06:50;;;;;;;10.20;3.40;;;15.70;86.10;;;;;;5076605;28;20370;-80
2021/07/07 02:09:19;;;;;;;7.40;3.42;;;15.60;85.40;;;;;;5085012;28;20039;-80
2021/07/07 02:11:48;;;;;;;10.30;3.85;;;15.60;85.40;;;;;;5094373;28;20125;-82
2021/07/07 02:14:15;;;;;;;5.70;3.40;;;15.60;85.40;;;;;;5081150;28;20060;-82
2021/07/07 02:16:41;;;;;;;7.68;2.97;;;15.60;85.50;;;;;;5074292;28;20029;-82
2021/07/07 02:19:07;;;;;;;9.00;3.63;;;15.60;85.50;;;;;;5072899;28;20025;-83
2021/07/07 02:21:33;;;;;;;8.35;3.40;;;15.60;85.40;;;;;;5056167;28;20028;-82
2021/07/07 02:23:58;;;;;;;10.20;3.30;;;15.50;85.40;;;;;;5073866;28;20032;-81
2021/07/07 02:26:24;;;;;;;7.35;3.10;;;15.50;85.40;;;;;;5073827;28;20086;-82
2021/07/07 02:28:50;;;;;;;9.32;3.40;;;15.50;85.40;;;;;;5072748;28;20031;-82
2021/07/07 02:31:16;;;;;;;6.78;3.25;;;15.50;85.40;;;;;;5072657;28;20052;-82
2021/07/07 02:33:41;;;;;;;9.18;2.50;;;15.50;85.50;;;;;;5081713;28;20053;-82
2021/07/07 02:36:08;;;;;;;12.27;3.17;;;15.50;85.50;;;;;;5071699;28;20040;-82
2021/07/07 02:38:33;;;;;;;6.72;2.63;;;15.50;85.40;;;;;;5073733;28;20491;-82
2021/07/07 02:40:59;;;;;;;10.30;3.10;;;15.50;85.40;;;;;;5055443;28;20124;-82
2021/07/07 02:43:25;;;;;;;6.65;2.60;;;15.50;85.30;;;;;;5072494;28;20028;-82
2021/07/07 02:45:51;;;;;;;9.88;3.00;;;15.40;86.00;;;;;;5072553;28;20031;-82
2021/07/07 02:48:17;;;;;;;7.75;2.95;;;15.40;85.40;;;;;;5073476;28;20028;-82
2021/07/07 02:50:44;;;;;;;9.48;3.03;;;15.40;85.60;;;;;;5072408;28;20424;-82
2021/07/07 02:53:12;;;;;;;9.20;3.30;;;15.40;85.60;;;;;;5073080;28;20594;-82
2021/07/07 02:55:38;;;;;;;9.52;3.05;;;15.40;85.50;;;;;;5088443;28;20032;-81
2021/07/07 02:58:05;;;;;;;8.18;3.10;;;15.40;85.40;;;;;;5093851;28;20066;-80
2021/07/07 03:00:35;;;;;;;5.28;2.88;;;15.40;85.40;;;;;;5093778;28;20465;-80
2021/07/07 03:03:18;;;;;;;7.40;2.40;;;15.40;85.50;;;;;;5093899;28;20024;-80
2021/07/07 03:05:49;;;;;;;13.60;2.92;;;15.30;85.50;;;;;;5079015;28;20035;-80
2021/07/07 03:08:16;;;;;;;9.32;3.00;;;15.40;85.60;;;;;;5073245;28;20519;-80
2021/07/07 03:10:42;;;;;;;11.32;2.88;;;15.30;85.60;;;;;;5072174;28;20032;-80
2021/07/07 03:13:09;;;;;;;8.20;2.38;;;15.30;85.50;;;;;;5071947;28;20056;-80
2021/07/07 03:15:36;;;;;;;6.35;2.50;;;15.30;85.50;;;;;;5085363;28;20504;-80
2021/07/07 03:18:02;;;;;;;10.32;2.42;;;15.30;85.50;;;;;;5072977;28;20449;-80
2021/07/07 03:20:28;;;;;;;5.30;2.60;;;15.30;85.50;;;;;;5071963;28;20111;-80
2021/07/07 03:22:54;;;;;;;6.32;2.60;;;15.30;85.50;;;;;;5072088;28;20100;-80
2021/07/07 03:25:20;;;;;;;6.90;2.53;;;15.20;85.50;;;;;;5072005;28;20450;-80
2021/07/07 03:27:46;;;;;;;6.25;2.30;;;15.20;85.60;;;;;;5072165;28;20029;-80
2021/07/07 03:30:12;;;;;;;11.18;3.15;;;15.20;85.60;;;;;;5079893;28;20552;-80
2021/07/07 03:32:38;;;;;;;6.95;2.45;;;15.20;85.70;;;;;;5071837;28;20035;-80
2021/07/07 03:35:04;;;;;;;8.63;2.67;;;15.20;85.80;;;;;;5055079;28;20028;-80
2021/07/07 03:37:30;;;;;;;8.93;2.28;;;15.20;85.70;;;;;;5073112;28;20031;-80
2021/07/07 03:39:55;;;;;;;6.88;2.58;;;15.20;85.80;;;;;;5072946;28;20033;-80
2021/07/07 03:42:21;;;;;;;14.55;3.00;;;15.10;85.80;;;;;;5073108;28;20028;-80
2021/07/07 03:44:47;;;;;;;10.05;2.35;;;15.10;85.80;;;;;;5071986;28;20112;-80
2021/07/07 03:47:12;;;;;;;6.10;2.33;;;15.10;85.80;;;;;;5079664;28;20378;-80
2021/07/07 03:49:38;;;;;;;9.57;2.60;;;15.10;85.90;;;;;;5090583;28;20389;-80
2021/07/07 03:52:05;;;;;;;7.90;2.28;;;15.10;85.90;;;;;;5095920;28;20028;-80
2021/07/07 03:54:31;;;;;;;6.47;2.15;;;15.10;86.00;;;;;;5090749;28;20075;-80
2021/07/07 03:56:57;;;;;;;7.15;2.50;;;15.10;86.00;;;;;;5075742;28;20527;-80
2021/07/07 03:59:23;;;;;;;9.23;2.63;;;15.10;86.00;;;;;;5075675;28;20025;-80
2021/07/07 04:01:49;;;;;;;10.57;2.47;;;15.20;86.00;;;;;;5076974;28;20024;-80
2021/07/07 04:04:16;;;;;;;7.30;2.50;;;15.20;86.10;;;;;;5076584;28;20024;-80
2021/07/07 04:06:42;;;;;;;5.72;2.17;;;15.20;86.10;;;;;;5096021;28;20221;-80
2021/07/07 04:09:08;;;;;;;8.40;2.15;;;15.30;86.20;;;;;;5096942;28;20037;-80
2021/07/07 04:11:33;;;;;;;9.02;2.67;;;15.30;86.20;;;;;;5096939;28;20115;-80
2021/07/07 04:13:59;;;;;;;7.50;2.65;;;15.40;86.20;;;;;;5096590;28;20052;-80
2021/07/07 04:16:25;;;;;;;7.43;2.70;;;15.50;85.90;;;;;;5078864;28;20035;-80
2021/07/07 04:18:52;;;;;;;8.48;2.50;;;15.50;85.90;;;;;;5096739;28;20032;-80
2021/07/07 04:21:17;;;;;;;13.70;2.40;;;15.60;86.00;;;;;;5095286;28;20028;-80
2021/07/07 04:23:43;;;;;;;9.10;2.50;;;15.70;86.00;;;;;;5095564;28;20081;-80
2021/07/07 04:26:09;;;;;;;9.52;2.40;;;15.70;86.00;;;;;;5095475;28;20024;-80
2021/07/07 04:28:35;;;;;;;6.97;2.45;;;15.70;85.90;;;;;;5096805;28;20427;-80
2021/07/07 04:31:00;;;;;;;12.52;2.20;;;15.80;85.90;;;;;;5095190;28;20032;-80
2021/07/07 04:33:26;;;;;;;10.88;2.67;;;15.80;85.90;;;;;;5091297;28;20043;-80
2021/07/07 04:35:51;;;;;;;8.57;2.40;;;15.90;86.10;;;;;;5074821;28;20032;-80
2021/07/07 04:38:17;;;;;;;9.50;2.30;;;15.90;86.20;;;;;;5075531;28;20412;-80
2021/07/07 04:40:43;;;;;;;8.90;2.60;;;15.90;86.30;;;;;;5074843;28;20037;-80
2021/07/07 04:43:08;;;;;;;11.07;2.80;;;16.00;86.20;;;;;;5094624;28;20043;-80
2021/07/07 04:45:34;;;;;;;11.45;2.38;;;16.00;86.20;;;;;;5077091;28;20033;-80
2021/07/07 04:47:59;;;;;;;6.88;2.35;;;16.00;86.10;;;;;;5086448;28;20028;-80
2021/07/07 04:50:25;;;;;;;6.45;2.13;;;16.00;86.00;;;;;;5077646;28;20032;-80
2021/07/07 04:52:51;;;;;;;5.72;1.98;;;16.10;86.00;;;;;;5076791;28;20098;-80
2021/07/07 04:55:18;;;;;;;10.48;2.50;;;16.10;85.80;;;;;;5082334;28;20036;-80
2021/07/07 04:57:44;;;;;;;7.13;2.40;;;16.20;85.80;;;;;;5085645;28;20476;-80
2021/07/07 05:00:11;;;;;;;9.45;2.63;;;16.20;85.80;;;;;;5083346;28;20064;-80
2021/07/07 05:02:37;;;;;;;10.40;2.53;;;16.20;85.80;;;;;;5075758;28;20031;-80
2021/07/07 05:05:04;;;;;;;9.13;2.28;;;16.30;85.80;;;;;;5074304;28;20034;-80
2021/07/07 05:07:30;;;;;;;8.13;2.20;;;16.30;85.80;;;;;;5057480;28;20059;-80
2021/07/07 05:09:56;;;;;;;8.13;2.83;;;16.30;85.80;;;;;;5075193;28;20481;-80
2021/07/07 05:12:21;;;;;;;12.13;2.70;;;16.40;85.90;;;;;;5075496;28;20366;-80
2021/07/07 05:14:47;;;;;;;5.32;2.20;;;16.40;85.90;;;;;;5074222;28;20678;-80
2021/07/07 05:17:13;;;;;;;7.38;2.10;;;16.50;85.90;;;;;;5075924;28;20488;-80
2021/07/07 05:19:39;;;;;;;7.40;2.65;;;16.50;85.70;;;;;;5074153;28;20389;-80
2021/07/07 05:22:04;;;;;;;7.22;2.25;;;16.50;85.60;;;;;;5075395;28;20029;-80
2021/07/07 05:24:30;;;;;;;9.27;2.60;;;16.60;85.70;;;;;;5074085;28;20067;-80
2021/07/07 05:26:56;;;;;;;8.80;2.35;;;16.60;85.70;;;;;;5074213;28;20541;-80
2021/07/07 05:29:21;;;;;;;12.52;2.55;;;16.70;85.50;;;;;;5073821;28;20131;-80
2021/07/07 05:31:49;;;;;;;8.13;2.53;;;16.70;85.40;;;;;;5074076;28;20036;-80
2021/07/07 05:34:14;;;;;;;11.73;3.28;;;16.70;85.50;;;;;;5073961;28;20031;-80
2021/07/07 05:36:40;;;;;;;10.38;2.55;;;16.70;85.30;;;;;;5057252;28;20029;-80
2021/07/07 05:39:06;;;;;;;6.57;2.38;;;16.80;85.20;;;;;;5074920;28;20086;-80
2021/07/07 05:41:31;;;;;;;8.65;2.72;;;16.80;85.30;;;;;;5073185;28;20120;-80
2021/07/07 05:43:57;;;;;;;7.85;2.70;;;16.90;85.40;;;;;;5074732;28;20384;-80
2021/07/07 05:46:22;;;;;;;10.65;2.88;;;17.00;85.40;;;;;;5073542;28;20389;-80
2021/07/07 05:48:48;;;;;;;9.50;2.80;;;17.00;85.10;;;;;;5074820;28;20111;-80
2021/07/07 05:51:16;;;;;;;13.23;2.97;;;17.10;85.00;;;;;;5073537;28;20031;-80
2021/07/07 05:53:41;;;;;;;9.50;2.65;;;17.10;84.80;;;;;;5074821;28;20074;-80
2021/07/07 05:56:07;;;;;;;10.85;2.50;;;17.10;84.70;;;;;;5073368;28;20016;-80
2021/07/07 05:58:33;;;;;;;10.98;2.70;;;17.10;84.60;;;;;;5072992;28;20439;-80
2021/07/07 06:00:58;;;;;;;8.43;2.58;;;17.10;84.70;;;;;;5073065;28;20439;-80
2021/07/07 06:03:24;;;;;;;8.32;2.78;;;17.10;84.90;;;;;;5072996;28;20024;-80
2021/07/07 06:05:49;;;;;;;12.27;3.05;;;17.00;85.10;;;;;;5074704;28;20389;-80
2021/07/07 06:08:15;;;;;;;10.40;3.15;;;17.00;85.30;;;;;;5073003;28;20181;-80
2021/07/07 06:10:42;;;;;;;6.65;2.20;;;17.00;85.30;;;;;;5072393;28;20024;-80
2021/07/07 06:13:08;;;;;;;8.52;2.60;;;17.10;85.20;;;;;;5069121;28;20449;-79
2021/07/07 06:15:36;;;;;;;9.48;2.67;;;17.30;85.00;;;;;;5054252;28;20029;-80
2021/07/07 06:18:03;;;;;;;11.50;2.35;;;17.30;84.70;;;;;;5053173;28;20024;-80
2021/07/07 06:20:29;;;;;;;11.48;2.90;;;17.40;84.40;;;;;;5053140;28;20029;-79
2021/07/07 06:22:55;;;;;;;6.97;2.55;;;17.60;84.30;;;;;;5053088;28;20032;-79
2021/07/07 06:25:21;;;;;;;6.25;2.28;;;17.70;84.10;;;;;;5080579;28;20086;-79
2021/07/07 06:27:47;;;;;;;8.35;2.60;;;17.80;84.00;;;;;;5073758;28;20099;-78
2021/07/07 06:30:16;;;;;;;9.05;2.72;;;17.90;83.90;;;;;;5073186;28;20037;-78
2021/07/07 06:32:44;;;;;;;12.40;3.17;;;18.00;83.50;;;;;;5076404;28;20032;-78
2021/07/07 06:35:12;;;;;;;10.32;2.53;;;18.10;83.20;;;;;;5073361;28;20032;-77
2021/07/07 06:37:38;;;;;;;9.05;2.50;;;18.30;83.50;;;;;;5073224;28;20044;-79
2021/07/07 06:40:06;;;;;;;6.88;2.15;;;18.30;82.60;;;;;;5089244;28;20066;-82
2021/07/07 06:42:31;;;;;;;7.80;2.17;;;18.40;82.20;;;;;;5087067;28;20094;-84
2021/07/07 06:44:58;;;;;;;8.88;2.28;;;18.60;81.70;;;;;;5072595;28;20020;-84
2021/07/07 06:47:24;;;;;;;10.15;2.15;;;18.70;81.40;;;;;;5078501;28;20063;-83
2021/07/07 06:49:50;;;;;;;10.25;2.45;;;18.80;80.60;;;;;;5080398;28;20054;-84
2021/07/07 06:52:16;;;;;;;8.30;2.20;;;18.90;80.50;;;;;;5084013;28;20060;-84
2021/07/07 06:54:42;;;;;;;9.45;2.22;;;19.00;80.40;;;;;;5073985;28;20091;-84
2021/07/07 06:57:09;;;;;;;9.40;2.17;;;19.10;80.40;;;;;;5073341;28;20029;-85
2021/07/07 06:59:35;;;;;;;8.48;2.50;;;19.30;80.20;;;;;;5073601;28;20043;-82
2021/07/07 07:02:01;;;;;;;10.77;2.08;;;19.40;80.00;;;;;;5072124;28;20366;-82
2021/07/07 07:04:27;;;;;;;6.70;2.13;;;19.60;79.50;;;;;;5086424;28;20058;-82
2021/07/07 07:06:53;;;;;;;9.02;2.13;;;19.70;77.90;;;;;;5070378;28;20074;-82
2021/07/07 07:09:18;;;;;;;12.15;2.33;;;19.80;78.10;;;;;;5072323;28;20466;-82
2021/07/07 07:11:47;;;;;;;7.88;2.40;;;20.00;77.50;;;;;;5085445;28;20438;-82
2021/07/07 07:14:13;;;;;;;12.57;2.10;;;20.00;76.70;;;;;;5093413;28;20078;-82
2021/07/07 07:16:38;;;;;;;10.15;2.10;;;20.20;76.50;;;;;;5079534;28;20052;-82
2021/07/07 07:19:04;;;;;;;10.05;1.80;;;20.30;76.50;;;;;;5073420;28;20028;-82
2021/07/07 07:21:30;;;;;;;11.68;2.35;;;20.40;75.10;;;;;;5072334;28;20036;-80
2021/07/07 07:23:55;;;;;;;6.70;2.03;;;20.40;75.20;;;;;;5071809;28;20029;-80
2021/07/07 07:26:22;;;;;;;8.10;2.40;;;20.50;74.60;;;;;;5072075;28;20082;-81
2021/07/07 07:28:48;;;;;;;8.27;2.40;;;20.60;73.50;;;;;;5073354;28;20031;-82
2021/07/07 07:31:13;;;;;;;8.75;2.00;;;20.70;74.00;;;;;;5073415;28;20033;-82
2021/07/07 07:33:39;;;;;;;10.82;2.05;;;20.80;73.60;;;;;;5073231;28;20033;-82
2021/07/07 07:36:05;;;;;;;6.80;1.98;;;20.90;73.10;;;;;;5080663;28;20078;-82
2021/07/07 07:38:37;;;;;;;7.65;2.10;;;21.00;72.50;;;;;;5093450;28;20063;-82
2021/07/07 07:41:03;;;;;;;6.18;1.85;;;21.20;72.20;;;;;;5076234;28;20029;-82
2021/07/07 07:43:29;;;;;;;10.43;1.90;;;21.30;72.00;;;;;;5075300;28;20545;-82
2021/07/07 07:45:55;;;;;;;12.30;2.22;;;21.40;71.80;;;;;;5093464;28;20028;-82
2021/07/07 07:48:22;;;;;;;5.65;1.70;;;21.50;71.00;;;;;;5093289;28;20436;-83
2021/07/07 07:50:48;;;;;;;5.15;1.73;;;21.50;70.80;;;;;;5093406;28;20024;-82
2021/07/07 07:53:14;;;;;;;9.05;1.98;;;21.60;71.10;;;;;;5076805;28;20396;-82
2021/07/07 07:55:40;;;;;;;9.90;1.83;;;21.70;70.20;;;;;;5071858;28;20035;-82
2021/07/07 07:58:06;;;;;;;8.70;1.63;;;21.70;69.50;;;;;;5071801;28;20090;-82
2021/07/07 08:00:32;;;;;;;6.93;1.75;;;21.80;69.40;;;;;;5072808;28;20016;-81
2021/07/07 08:02:58;;;;;;;6.68;1.88;;;21.90;69.70;;;;;;5071608;28;20028;-81
2021/07/07 08:05:24;;;;;;;8.80;1.90;;;22.00;68.50;;;;;;5073211;28;20036;-83
2021/07/07 08:07:50;;;;;;;8.57;1.90;;;22.00;68.10;;;;;;5076879;28;20085;-83
2021/07/07 08:10:19;;;;;;;10.52;2.13;;;22.20;68.00;;;;;;5086285;28;20189;-82
2021/07/07 08:12:45;;;;;;;9.98;1.92;;;22.20;67.40;;;;;;5073080;28;20043;-80
2021/07/07 08:15:11;;;;;;;10.65;1.80;;;22.20;67.60;;;;;;5071409;28;20032;-81
2021/07/07 08:17:37;;;;;;;9.75;1.95;;;22.30;67.60;;;;;;5073918;28;20072;-81
2021/07/07 08:20:10;;;;;;;9.43;1.90;;;22.30;67.60;;;;;;5091837;28;20030;-82
2021/07/07 08:22:36;;;;;;;6.05;1.65;;;22.40;66.40;;;;;;5091699;28;20024;-83
2021/07/07 08:25:03;;;;;;;6.07;1.73;;;22.50;65.80;;;;;;5072745;28;20063;-81
2021/07/07 08:27:29;;;;;;;11.68;1.98;;;22.60;65.40;;;;;;5087846;28;20036;-81
2021/07/07 08:29:55;;;;;;;11.55;2.00;;;22.70;65.20;;;;;;5091735;28;20038;-81
2021/07/07 08:32:20;;;;;;;6.28;1.90;;;22.90;65.30;;;;;;5090671;28;20138;-82
2021/07/07 08:34:46;;;;;;;9.35;1.70;;;23.10;64.70;;;;;;5072644;28;20060;-81
2021/07/07 08:37:13;;;;;;;10.27;2.33;;;23.30;64.60;;;;;;5075185;28;20496;-83
2021/07/07 08:39:39;;;;;;;10.40;2.05;;;23.40;63.70;;;;;;5075185;28;20017;-83
2021/07/07 08:42:05;;;;;;;10.00;1.77;;;23.50;62.00;;;;;;5076199;28;20039;-84
2021/07/07 08:44:30;;;;;;;5.22;1.70;;;23.60;62.10;;;;;;5074828;28;20032;-82
2021/07/07 08:46:56;;;;;;;12.40;2.30;;;23.60;62.70;;;;;;5075830;28;20078;-83
2021/07/07 08:49:22;;;;;;;8.48;2.17;;;23.50;63.50;;;;;;5076158;28;20528;-84
2021/07/07 08:51:48;;;;;;;8.27;1.85;;;23.30;63.10;;;;;;5075812;28;20082;-85
2021/07/07 08:54:17;;;;;;;8.18;1.98;;;23.10;63.90;;;;;;5076016;28;20029;-84
2021/07/07 08:56:43;;;;;;;8.20;1.70;;;23.10;63.60;;;;;;5075896;28;20039;-84
2021/07/07 08:59:10;;;;;;;6.57;1.60;;;23.20;61.90;;;;;;5074275;28;20529;-86
2021/07/07 09:01:59;;;;;;;6.35;1.58;;;23.50;61.40;;;;;;5074571;28;20035;-86
2021/07/07 09:04:32;;;;;;;11.27;1.92;;;23.90;60.40;;;;;;5075630;28;20115;-84
2021/07/07 09:07:08;;;;;;;10.55;2.25;;;24.10;58.40;;;;;;5075591;28;20024;-85
2021/07/07 09:09:40;;;;;;;7.65;1.75;;;24.30;57.40;;;;;;5075441;28;20110;-83
2021/07/07 09:12:28;;;;;;;4.20;1.70;;;24.20;57.50;;;;;;5075338;28;20043;-84
2021/07/07 09:15:15;;;;;;;4.72;1.40;;;24.30;58.30;;;;;;5083207;28;20077;-86
2021/07/07 09:17:49;;;;;;;11.10;1.85;;;24.40;57.50;;;;;;5075624;28;20021;-87
2021/07/07 09:20:19;;;;;;;9.05;2.00;;;24.50;58.70;;;;;;5075304;28;20016;-86
2021/07/07 09:22:45;;;;;;;9.80;1.55;;;24.70;58.00;;;;;;5075223;28;20024;-84
2021/07/07 09:25:14;;;;;;;12.07;1.83;;;24.90;57.20;;;;;;5086040;28;20033;-83
2021/07/07 09:27:40;;;;;;;5.03;1.13;;;25.00;57.00;;;;;;5095556;28;20105;-86
2021/07/07 09:30:11;;;;;;;6.75;1.40;;;25.10;57.20;;;;;;5095219;28;20048;-84
2021/07/07 09:32:48;;;;;;;5.55;1.63;;;25.30;56.80;;;;;;5095180;28;20028;-83
2021/07/07 09:35:18;;;;;;;4.80;1.55;;;25.40;55.10;;;;;;5085559;28;20545;-85
2021/07/07 09:37:56;;;;;;;9.88;1.52;;;25.60;56.20;;;;;;5086975;28;20020;-83
2021/07/07 09:40:23;;;;;;;7.07;1.75;;;25.80;54.50;;;;;;5074926;28;20035;-86
2021/07/07 09:42:49;;;;;;;8.30;1.40;;;25.70;53.70;;;;;;5073557;28;20094;-84
2021/07/07 09:45:21;;;;;;;6.05;1.42;;;25.40;54.10;;;;;;5075049;28;20025;-86
2021/07/07 09:47:47;;;;;;;7.70;1.70;;;25.10;53.70;;;;;;5073547;28;20031;-83
2021/07/07 09:50:15;;;;;;;8.18;1.58;;;24.80;54.80;;;;;;5074797;28;20024;-85
2021/07/07 09:52:41;;;;;;;7.40;1.60;;;24.40;55.30;;;;;;5074625;28;20063;-84
2021/07/07 09:55:09;;;;;;;3.53;1.40;;;24.20;56.40;;;;;;5074215;28;20427;-86
2021/07/07 09:57:45;;;;;;;7.72;1.55;;;23.90;57.00;;;;;;5092567;28;20024;-85
2021/07/07 10:00:15;;;;;;;7.32;1.40;;;23.80;57.40;;;;;;5078711;28;20031;-84
2021/07/07 10:02:42;;;;;;;5.00;1.42;;;23.60;57.70;;;;;;5074604;28;20031;-87
2021/07/07 10:05:11;;;;;;;5.00;1.20;;;23.50;58.50;;;;;;5073531;28;20032;-87
2021/07/07 10:07:37;;;;;;;5.93;1.23;;;23.40;59.10;;;;;;5073241;28;20043;-86
2021/07/07 10:10:04;;;;;;;7.28;1.65;;;23.60;59.80;;;;;;5074348;28;20032;-86
2021/07/07 10:12:30;;;;;;;7.38;1.63;;;23.90;58.30;;;;;;5073305;28;20507;-86
2021/07/07 10:14:56;;;;;;;8.20;1.65;;;24.00;58.10;;;;;;5074337;28;20083;-87
2021/07/07 10:17:22;;;;;;;5.97;1.33;;;24.00;58.40;;;;;;5074560;28;20029;-88
2021/07/07 10:19:48;;;;;;;6.53;1.65;;;24.00;59.40;;;;;;5074381;28;20032;-85
2021/07/07 10:22:15;;;;;;;6.30;1.63;;;24.20;58.00;;;;;;5074274;28;20477;-85
2021/07/07 10:24:42;;;;;;;7.20;1.52;;;24.50;57.40;;;;;;5074385;28;20032;-87
2021/07/07 10:27:09;;;;;;;11.25;1.30;;;24.60;56.20;;;;;;5073323;28;20389;-88
2021/07/07 10:29:36;;;;;;;5.70;1.42;;;24.60;56.00;;;;;;5073154;28;20033;-87
2021/07/07 10:32:05;;;;;;;11.18;1.77;;;24.50;56.40;;;;;;5056278;28;20417;-86
2021/07/07 10:34:31;;;;;;;5.90;1.20;;;24.20;56.60;;;;;;5072776;28;20025;-85
2021/07/07 10:36:59;;;;;;;5.38;1.25;;;24.00;56.90;;;;;;5072737;28;20520;-85
2021/07/07 10:39:25;;;;;;;5.35;1.15;;;23.80;57.80;;;;;;5072862;28;20021;-86
2021/07/07 10:41:57;;;;;;;4.35;1.17;;;23.80;58.40;;;;;;5073925;28;20032;-85
2021/07/07 10:44:23;;;;;;;3.92;1.20;;;23.90;58.90;;;;;;5072547;28;20066;-86
2021/07/07 10:46:53;;;;;;;4.13;1.42;;;24.10;58.90;;;;;;5072604;28;20021;-86
2021/07/07 10:49:24;;;;;;;5.47;1.20;;;24.20;58.50;;;;;;5074099;28;20031;-85
2021/07/07 10:51:56;;;;;;;4.53;1.17;;;24.10;57.90;;;;;;5073858;28;20028;-87
2021/07/07 10:54:26;;;;;;;4.43;1.30;;;24.10;57.90;;;;;;5072566;28;20027;-85
2021/07/07 10:56:52;;;;;;;5.65;1.10;;;23.90;57.20;;;;;;5073436;28;20481;-85
2021/07/07 10:59:34;;;;;;;5.95;1.10;;;23.80;57.40;;;;;;5073625;28;20029;-86
2021/07/07 11:02:08;;;;;;;3.85;0.95;;;23.80;57.80;;;;;;5073813;28;20473;-85
2021/07/07 11:04:38;;;;;;;4.88;1.30;;;24.20;58.30;;;;;;5055654;28;20584;-86
2021/07/07 11:07:29;;;;;;;6.70;1.23;;;24.40;58.10;;;;;;5068986;28;20049;-88
2021/07/07 11:10:00;;;;;;;4.68;1.35;;;24.50;56.90;;;;;;5069894;28;20083;-88
2021/07/07 11:12:35;;;;;;;6.95;1.27;;;24.50;57.40;;;;;;5053851;28;20021;-89
2021/07/07 11:15:08;;;;;;;4.38;1.17;;;24.60;57.60;;;;;;5069449;28;20059;-87
2021/07/07 11:17:37;;;;;;;4.90;1.10;;;24.60;57.90;;;;;;5069725;28;20052;-88
2021/07/07 11:20:14;;;;;;;7.40;1.30;;;24.70;56.80;;;;;;5070014;28;20025;-89
2021/07/07 11:22:43;;;;;;;7.10;1.40;;;24.90;57.10;;;;;;5053557;28;20465;-88
2021/07/07 11:25:15;;;;;;;6.75;1.05;;;25.00;57.20;;;;;;5070237;28;20027;-88
2021/07/07 11:27:41;;;;;;;3.50;0.93;;;25.10;56.40;;;;;;5076028;28;20031;-88
2021/07/07 11:30:16;;;;;;;4.35;1.15;;;25.00;55.20;;;;;;5093782;28;20030;-87
2021/07/07 11:32:43;;;;;;;5.32;1.15;;;25.10;55.70;;;;;;5069162;28;20463;-85
2021/07/07 11:35:32;;;;;;;7.47;1.30;;;25.20;55.80;;;;;;5071508;28;20012;-86
2021/07/07 11:38:02;;;;;;;4.10;1.20;;;25.10;56.50;;;;;;5073235;28;20469;-85
2021/07/07 11:40:30;;;;;;;7.38;1.50;;;24.80;56.10;;;;;;5067276;28;20040;-85
2021/07/07 11:43:11;;;;;;;6.05;1.20;;;24.60;56.50;;;;;;5071741;28;20020;-86
2021/07/07 11:45:45;;;;;;;6.55;1.20;;;24.40;56.30;;;;;;5091153;28;20077;-83
2021/07/07 11:48:17;;;;;;;4.50;1.10;;;24.20;57.60;;;;;;5084360;28;20032;-78
2021/07/07 11:50:48;;;;;;;7.45;1.30;;;24.10;59.10;;;;;;5071969;28;20032;-77
2021/07/07 11:53:15;;;;;;;6.15;1.33;;;24.50;58.50;;;;;;5072511;28;20045;-78
2021/07/07 11:56:16;;;;;;;4.68;1.35;;;24.90;57.10;;;;;;5071523;28;20028;-79
2021/07/07 11:58:48;;;;;;;3.05;1.13;;;25.10;56.40;;;;;;5072246;28;20034;-78
2021/07/07 12:01:22;;;;;;;5.65;1.10;;;25.20;56.30;;;;;;5071984;28;20538;-78
2021/07/07 12:03:59;;;;;;;5.80;1.00;;;25.20;55.90;;;;;;5074242;28;20040;-78
2021/07/07 12:06:30;;;;;;;3.90;1.15;;;25.20;55.40;;;;;;5066200;28;20489;-78
2021/07/07 12:08:56;;;;;;;6.90;1.30;;;25.20;55.40;;;;;;5079945;28;20032;-75
2021/07/07 12:11:23;;;;;;;3.25;1.15;;;25.40;55.40;;;;;;5080342;28;20542;-76
2021/07/07 12:13:51;;;;;;;4.82;1.27;;;25.60;55.30;;;;;;5075193;28;20072;-76
2021/07/07 12:16:24;;;;;;;3.78;1.27;;;25.80;55.10;;;;;;5079646;28;20024;-75
2021/07/07 12:18:56;;;;;;;5.82;1.40;;;26.10;54.80;;;;;;5075985;28;20081;-76
2021/07/07 12:21:24;;;;;;;6.40;1.25;;;26.30;54.50;;;;;;5083582;28;20024;-76
2021/07/07 12:23:53;;;;;;;4.32;1.25;;;26.50;53.00;;;;;;5095565;28;20477;-76
2021/07/07 12:26:28;;;;;;;6.78;1.05;;;26.40;52.70;;;;;;5079181;28;20150;-76
2021/07/07 12:28:56;;;;;;;8.15;1.17;;;26.30;52.50;;;;;;5075843;28;20021;-76
2021/07/07 12:31:22;;;;;;;;;;;25.90;52.30;;;;;;5066851;28;20067;-76
2021/07/07 12:33:55;;;;;;;4.82;1.05;;;25.60;53.90;;;;;;5084574;28;19970;-76
2021/07/07 12:36:29;;;;;;;7.85;1.98;;;25.30;55.20;;;;;;5093739;28;20036;-75
2021/07/07 12:38:57;;;;;;;8.20;1.50;;;25.40;54.20;;;;;;5065856;28;20036;-76
2021/07/07 12:41:57;;;;;;;3.45;0.98;;;25.40;54.20;;;;;;5075734;28;20025;-77
2021/07/07 12:44:28;;;;;;;4.85;1.25;;;25.30;54.60;;;;;;5066759;28;20489;-77
2021/07/07 12:47:03;;;;;;;3.50;0.93;;;25.30;55.10;;;;;;5075807;28;20020;-77
2021/07/07 12:49:39;;;;;;;5.22;0.85;;;25.40;54.50;;;;;;5075667;28;20020;-78